sensor_id;sensor_type;location;lat;lon;timestamp;P1;durP1;ratioP1;P2;durP2;ratioP2
3613;SDS011;1821;50.936;6.854;2024-01-15T00:00:39;30.92;;;21.52;;
3613;SDS011;1821;50.936;6.854;2024-01-15T00:01:22;35.30;;;24.60;;
3613;SDS011;1821;50.936;6.854;2024-01-15T00:02:06;36.85;;;22.80;;
3613;SDS011;1821;50.936;6.854;2024-01-15T00:02:49;33.05;;;21.42;;
3613;SDS011;1821;50.936;6.854;2024-01-15T00:03:31;30.52;;;20.10;;
3613;SDS011;1821;50.936;6.854;2024-01-15T00:04:14;35.65;;;21.10;;
3613;SDS011;1821;50.936;6.854;2024-01-15T00:04:57;33.30;;;21.25;;
3613;SDS011;1821;50.936;6.854;2024-01-15T00:05:39;38.35;;;21.38;;
3613;SDS011;1821;50.936;6.854;2024-01-15T00:06:21;38.20;;;22.08;;
3613;SDS011;1821;50.936;6.854;2024-01-15T00:07:04;33.55;;;21.92;;
3613;SDS011;1821;50.936;6.854;2024-01-15T00:07:46;32.03;;;19.93;;
3613;SDS011;1821;50.936;6.854;2024-01-15T00:08:28;30.35;;;19.73;;
3613;SDS011;1821;50.936;6.854;2024-01-15T00:09:10;29.33;;;20.02;;
3613;SDS011;1821;50.936;6.854;2024-01-15T00:09:53;30.23;;;19.88;;
3613;SDS011;1821;50.936;6.854;2024-01-15T00:10:35;33.70;;;20.40;;
3613;SDS011;1821;50.936;6.854;2024-01-15T00:11:17;33.85;;;19.60;;
3613;SDS011;1821;50.936;6.854;2024-01-15T00:12:01;36.15;;;20.00;;
3613;SDS011;1821;50.936;6.854;2024-01-15T00:12:43;33.83;;;20.02;;
3613;SDS011;1821;50.936;6.854;2024-01-15T00:13:25;32.33;;;19.40;;
3613;SDS011;1821;50.936;6.854;2024-01-15T00:14:08;29.08;;;19.02;;
3613;SDS011;1821;50.936;6.854;2024-01-15T00:14:50;32.28;;;19.33;;
3613;SDS011;1821;50.936;6.854;2024-01-15T00:15:33;30.63;;;19.08;;
3613;SDS011;1821;50.936;6.854;2024-01-15T00:16:15;33.15;;;21.27;;
3613;SDS011;1821;50.936;6.854;2024-01-15T00:17:00;30.23;;;19.45;;
3613;SDS011;1821;50.936;6.854;2024-01-15T00:17:43;30.80;;;19.27;;
3613;SDS011;1821;50.936;6.854;2024-01-15T00:18:25;30.17;;;18.63;;
3613;SDS011;1821;50.936;6.854;2024-01-15T00:19:08;31.10;;;18.75;;
3613;SDS011;1821;50.936;6.854;2024-01-15T00:19:51;31.80;;;19.08;;
3613;SDS011;1821;50.936;6.854;2024-01-15T00:20:34;31.13;;;19.27;;
3613;SDS011;1821;50.936;6.854;2024-01-15T00:21:16;31.58;;;19.17;;
3613;SDS011;1821;50.936;6.854;2024-01-15T00:21:58;32.55;;;19.38;;
3613;SDS011;1821;50.936;6.854;2024-01-15T00:22:40;31.10;;;20.42;;
3613;SDS011;1821;50.936;6.854;2024-01-15T00:23:23;31.95;;;19.63;;
3613;SDS011;1821;50.936;6.854;2024-01-15T00:24:05;30.48;;;20.27;;
3613;SDS011;1821;50.936;6.854;2024-01-15T00:24:47;29.35;;;19.48;;
3613;SDS011;1821;50.936;6.854;2024-01-15T00:25:30;34.90;;;21.00;;
3613;SDS011;1821;50.936;6.854;2024-01-15T00:26:12;32.33;;;22.42;;
3613;SDS011;1821;50.936;6.854;2024-01-15T00:26:55;35.88;;;22.55;;
3613;SDS011;1821;50.936;6.854;2024-01-15T00:27:37;39.28;;;22.25;;
3613;SDS011;1821;50.936;6.854;2024-01-15T00:28:19;40.55;;;23.15;;
3613;SDS011;1821;50.936;6.854;2024-01-15T00:29:02;40.78;;;23.85;;
3613;SDS011;1821;50.936;6.854;2024-01-15T00:29:44;41.63;;;23.83;;
3613;SDS011;1821;50.936;6.854;2024-01-15T00:30:26;41.38;;;23.00;;
3613;SDS011;1821;50.936;6.854;2024-01-15T00:31:09;47.80;;;28.20;;
3613;SDS011;1821;50.936;6.854;2024-01-15T00:31:51;42.78;;;24.90;;
3613;SDS011;1821;50.936;6.854;2024-01-15T00:32:33;37.05;;;21.65;;
3613;SDS011;1821;50.936;6.854;2024-01-15T00:33:16;36.70;;;22.17;;
3613;SDS011;1821;50.936;6.854;2024-01-15T00:33:58;46.72;;;28.52;;
3613;SDS011;1821;50.936;6.854;2024-01-15T00:34:41;44.22;;;27.25;;
3613;SDS011;1821;50.936;6.854;2024-01-15T00:35:23;37.13;;;23.92;;
3613;SDS011;1821;50.936;6.854;2024-01-15T00:36:06;37.85;;;22.40;;
3613;SDS011;1821;50.936;6.854;2024-01-15T00:36:48;36.05;;;23.02;;
3613;SDS011;1821;50.936;6.854;2024-01-15T00:37:31;35.22;;;22.75;;
3613;SDS011;1821;50.936;6.854;2024-01-15T00:38:13;33.92;;;22.17;;
3613;SDS011;1821;50.936;6.854;2024-01-15T00:38:55;33.75;;;20.10;;
3613;SDS011;1821;50.936;6.854;2024-01-15T00:39:38;32.22;;;20.48;;
3613;SDS011;1821;50.936;6.854;2024-01-15T00:40:20;36.05;;;22.90;;
3613;SDS011;1821;50.936;6.854;2024-01-15T00:41:02;36.88;;;23.52;;
3613;SDS011;1821;50.936;6.854;2024-01-15T00:41:45;36.58;;;20.77;;
3613;SDS011;1821;50.936;6.854;2024-01-15T00:42:27;35.40;;;22.55;;
3613;SDS011;1821;50.936;6.854;2024-01-15T00:43:09;33.55;;;22.02;;
3613;SDS011;1821;50.936;6.854;2024-01-15T00:43:52;36.40;;;22.40;;
3613;SDS011;1821;50.936;6.854;2024-01-15T00:44:34;34.58;;;20.65;;
3613;SDS011;1821;50.936;6.854;2024-01-15T00:45:16;33.30;;;21.85;;
3613;SDS011;1821;50.936;6.854;2024-01-15T00:46:01;32.63;;;21.35;;
3613;SDS011;1821;50.936;6.854;2024-01-15T00:46:44;33.95;;;21.52;;
3613;SDS011;1821;50.936;6.854;2024-01-15T00:47:27;34.13;;;20.50;;
3613;SDS011;1821;50.936;6.854;2024-01-15T00:48:09;36.42;;;21.13;;
3613;SDS011;1821;50.936;6.854;2024-01-15T00:48:52;33.40;;;21.20;;
3613;SDS011;1821;50.936;6.854;2024-01-15T00:49:34;34.85;;;21.83;;
3613;SDS011;1821;50.936;6.854;2024-01-15T00:50:17;34.30;;;20.83;;
3613;SDS011;1821;50.936;6.854;2024-01-15T00:50:59;32.58;;;21.33;;
3613;SDS011;1821;50.936;6.854;2024-01-15T00:51:42;32.80;;;20.77;;
3613;SDS011;1821;50.936;6.854;2024-01-15T00:52:24;34.13;;;21.27;;
3613;SDS011;1821;50.936;6.854;2024-01-15T00:53:06;35.10;;;21.33;;
3613;SDS011;1821;50.936;6.854;2024-01-15T00:53:49;34.35;;;20.85;;
3613;SDS011;1821;50.936;6.854;2024-01-15T00:54:31;35.20;;;20.63;;
3613;SDS011;1821;50.936;6.854;2024-01-15T00:55:13;34.42;;;20.02;;
3613;SDS011;1821;50.936;6.854;2024-01-15T00:55:56;31.20;;;20.40;;
3613;SDS011;1821;50.936;6.854;2024-01-15T00:56:38;33.90;;;20.52;;
3613;SDS011;1821;50.936;6.854;2024-01-15T00:57:21;37.53;;;21.38;;
3613;SDS011;1821;50.936;6.854;2024-01-15T00:58:03;36.58;;;20.40;;
3613;SDS011;1821;50.936;6.854;2024-01-15T00:58:45;35.47;;;20.47;;
3613;SDS011;1821;50.936;6.854;2024-01-15T00:59:28;33.20;;;19.80;;
3613;SDS011;1821;50.936;6.854;2024-01-15T01:00:10;36.60;;;20.60;;
3613;SDS011;1821;50.936;6.854;2024-01-15T01:00:53;37.67;;;21.80;;
3613;SDS011;1821;50.936;6.854;2024-01-15T01:01:35;34.25;;;22.20;;
3613;SDS011;1821;50.936;6.854;2024-01-15T01:02:19;33.55;;;21.95;;
3613;SDS011;1821;50.936;6.854;2024-01-15T01:03:04;33.17;;;22.05;;
3613;SDS011;1821;50.936;6.854;2024-01-15T01:03:46;38.28;;;24.85;;
3613;SDS011;1821;50.936;6.854;2024-01-15T01:04:29;38.60;;;23.75;;
3613;SDS011;1821;50.936;6.854;2024-01-15T01:05:11;31.23;;;20.85;;
3613;SDS011;1821;50.936;6.854;2024-01-15T01:05:54;30.17;;;20.30;;
3613;SDS011;1821;50.936;6.854;2024-01-15T01:06:37;33.63;;;21.05;;
3613;SDS011;1821;50.936;6.854;2024-01-15T01:07:19;35.15;;;21.23;;
3613;SDS011;1821;50.936;6.854;2024-01-15T01:08:01;35.75;;;21.65;;
3613;SDS011;1821;50.936;6.854;2024-01-15T01:08:44;32.60;;;21.20;;
3613;SDS011;1821;50.936;6.854;2024-01-15T01:09:26;33.45;;;21.25;;
3613;SDS011;1821;50.936;6.854;2024-01-15T01:10:11;33.38;;;20.38;;
3613;SDS011;1821;50.936;6.854;2024-01-15T01:10:55;32.30;;;19.45;;
3613;SDS011;1821;50.936;6.854;2024-01-15T01:11:38;31.15;;;19.70;;
3613;SDS011;1821;50.936;6.854;2024-01-15T01:12:20;34.17;;;20.95;;
3613;SDS011;1821;50.936;6.854;2024-01-15T01:13:02;36.28;;;20.90;;
3613;SDS011;1821;50.936;6.854;2024-01-15T01:13:44;37.10;;;21.10;;
3613;SDS011;1821;50.936;6.854;2024-01-15T01:14:27;34.85;;;21.73;;
3613;SDS011;1821;50.936;6.854;2024-01-15T01:15:09;36.40;;;20.55;;
3613;SDS011;1821;50.936;6.854;2024-01-15T01:15:51;35.75;;;20.83;;
3613;SDS011;1821;50.936;6.854;2024-01-15T01:16:34;33.85;;;20.40;;
3613;SDS011;1821;50.936;6.854;2024-01-15T01:17:20;34.80;;;19.83;;
3613;SDS011;1821;50.936;6.854;2024-01-15T01:18:03;34.88;;;19.95;;
3613;SDS011;1821;50.936;6.854;2024-01-15T01:18:46;33.90;;;21.75;;
3613;SDS011;1821;50.936;6.854;2024-01-15T01:19:29;30.27;;;20.48;;
3613;SDS011;1821;50.936;6.854;2024-01-15T01:20:12;34.42;;;19.05;;
3613;SDS011;1821;50.936;6.854;2024-01-15T01:20:59;31.63;;;18.40;;
3613;SDS011;1821;50.936;6.854;2024-01-15T01:21:42;31.13;;;18.63;;
3613;SDS011;1821;50.936;6.854;2024-01-15T01:22:24;32.10;;;20.17;;
3613;SDS011;1821;50.936;6.854;2024-01-15T01:23:06;33.15;;;20.25;;
3613;SDS011;1821;50.936;6.854;2024-01-15T01:23:49;31.67;;;18.60;;
3613;SDS011;1821;50.936;6.854;2024-01-15T01:24:31;30.63;;;19.27;;
3613;SDS011;1821;50.936;6.854;2024-01-15T01:25:13;31.95;;;19.30;;
3613;SDS011;1821;50.936;6.854;2024-01-15T01:25:56;32.80;;;19.73;;
3613;SDS011;1821;50.936;6.854;2024-01-15T01:26:38;34.75;;;20.05;;
3613;SDS011;1821;50.936;6.854;2024-01-15T01:27:21;32.47;;;19.33;;
3613;SDS011;1821;50.936;6.854;2024-01-15T01:28:04;29.98;;;18.40;;
3613;SDS011;1821;50.936;6.854;2024-01-15T01:28:46;29.90;;;18.95;;
3613;SDS011;1821;50.936;6.854;2024-01-15T01:29:28;29.10;;;17.67;;
3613;SDS011;1821;50.936;6.854;2024-01-15T01:30:10;32.10;;;18.77;;
3613;SDS011;1821;50.936;6.854;2024-01-15T01:30:53;32.65;;;20.08;;
3613;SDS011;1821;50.936;6.854;2024-01-15T01:31:35;31.55;;;19.38;;
3613;SDS011;1821;50.936;6.854;2024-01-15T01:32:19;30.30;;;17.95;;
3613;SDS011;1821;50.936;6.854;2024-01-15T01:33:01;34.38;;;20.30;;
3613;SDS011;1821;50.936;6.854;2024-01-15T01:33:43;30.77;;;18.80;;
3613;SDS011;1821;50.936;6.854;2024-01-15T01:34:26;32.30;;;19.42;;
3613;SDS011;1821;50.936;6.854;2024-01-15T01:35:12;30.42;;;19.88;;
3613;SDS011;1821;50.936;6.854;2024-01-15T01:35:55;28.02;;;19.33;;
3613;SDS011;1821;50.936;6.854;2024-01-15T01:36:37;35.13;;;18.80;;
3613;SDS011;1821;50.936;6.854;2024-01-15T01:37:20;29.75;;;18.58;;
3613;SDS011;1821;50.936;6.854;2024-01-15T01:38:02;28.23;;;18.40;;
3613;SDS011;1821;50.936;6.854;2024-01-15T01:38:44;29.75;;;19.63;;
3613;SDS011;1821;50.936;6.854;2024-01-15T01:39:27;27.73;;;19.60;;
3613;SDS011;1821;50.936;6.854;2024-01-15T01:40:10;29.25;;;18.60;;
3613;SDS011;1821;50.936;6.854;2024-01-15T01:40:52;34.90;;;19.25;;
3613;SDS011;1821;50.936;6.854;2024-01-15T01:41:35;33.03;;;20.10;;
3613;SDS011;1821;50.936;6.854;2024-01-15T01:42:17;30.90;;;20.50;;
3613;SDS011;1821;50.936;6.854;2024-01-15T01:43:00;31.55;;;19.23;;
3613;SDS011;1821;50.936;6.854;2024-01-15T01:43:42;32.35;;;19.02;;
3613;SDS011;1821;50.936;6.854;2024-01-15T01:44:25;32.92;;;19.85;;
3613;SDS011;1821;50.936;6.854;2024-01-15T01:45:07;32.75;;;19.52;;
3613;SDS011;1821;50.936;6.854;2024-01-15T01:45:50;29.83;;;18.77;;
3613;SDS011;1821;50.936;6.854;2024-01-15T01:46:33;29.88;;;19.10;;
3613;SDS011;1821;50.936;6.854;2024-01-15T01:47:15;29.20;;;20.00;;
3613;SDS011;1821;50.936;6.854;2024-01-15T01:47:58;30.95;;;19.52;;
3613;SDS011;1821;50.936;6.854;2024-01-15T01:48:40;28.00;;;17.85;;
3613;SDS011;1821;50.936;6.854;2024-01-15T01:49:22;31.13;;;18.08;;
3613;SDS011;1821;50.936;6.854;2024-01-15T01:50:05;36.00;;;20.40;;
3613;SDS011;1821;50.936;6.854;2024-01-15T01:50:48;36.88;;;20.80;;
3613;SDS011;1821;50.936;6.854;2024-01-15T01:51:33;34.45;;;19.27;;
3613;SDS011;1821;50.936;6.854;2024-01-15T01:52:16;31.52;;;19.33;;
3613;SDS011;1821;50.936;6.854;2024-01-15T01:52:59;35.22;;;20.25;;
3613;SDS011;1821;50.936;6.854;2024-01-15T01:53:45;30.25;;;19.42;;
3613;SDS011;1821;50.936;6.854;2024-01-15T01:54:28;33.90;;;20.13;;
3613;SDS011;1821;50.936;6.854;2024-01-15T01:55:11;36.05;;;19.70;;
3613;SDS011;1821;50.936;6.854;2024-01-15T01:55:54;33.70;;;19.55;;
3613;SDS011;1821;50.936;6.854;2024-01-15T01:56:38;30.98;;;20.35;;
3613;SDS011;1821;50.936;6.854;2024-01-15T01:57:20;29.48;;;18.70;;
3613;SDS011;1821;50.936;6.854;2024-01-15T01:58:05;30.40;;;19.00;;
3613;SDS011;1821;50.936;6.854;2024-01-15T01:58:47;35.60;;;20.52;;
3613;SDS011;1821;50.936;6.854;2024-01-15T01:59:30;32.67;;;19.48;;
3613;SDS011;1821;50.936;6.854;2024-01-15T02:00:14;32.13;;;18.65;;
3613;SDS011;1821;50.936;6.854;2024-01-15T02:00:56;35.65;;;18.73;;
3613;SDS011;1821;50.936;6.854;2024-01-15T02:01:40;34.22;;;19.27;;
3613;SDS011;1821;50.936;6.854;2024-01-15T02:02:23;32.95;;;20.10;;
3613;SDS011;1821;50.936;6.854;2024-01-15T02:03:05;30.95;;;18.52;;
3613;SDS011;1821;50.936;6.854;2024-01-15T02:03:48;33.30;;;19.30;;
3613;SDS011;1821;50.936;6.854;2024-01-15T02:04:31;34.08;;;19.50;;
3613;SDS011;1821;50.936;6.854;2024-01-15T02:05:14;33.05;;;19.55;;
3613;SDS011;1821;50.936;6.854;2024-01-15T02:05:59;35.08;;;19.85;;
3613;SDS011;1821;50.936;6.854;2024-01-15T02:06:42;36.00;;;19.98;;
3613;SDS011;1821;50.936;6.854;2024-01-15T02:07:25;32.13;;;19.65;;
3613;SDS011;1821;50.936;6.854;2024-01-15T02:08:07;33.10;;;19.25;;
3613;SDS011;1821;50.936;6.854;2024-01-15T02:08:50;34.22;;;20.25;;
3613;SDS011;1821;50.936;6.854;2024-01-15T02:09:32;37.35;;;20.27;;
3613;SDS011;1821;50.936;6.854;2024-01-15T02:10:15;33.97;;;19.85;;
3613;SDS011;1821;50.936;6.854;2024-01-15T02:11:00;28.77;;;19.30;;
3613;SDS011;1821;50.936;6.854;2024-01-15T02:11:43;32.55;;;18.95;;
3613;SDS011;1821;50.936;6.854;2024-01-15T02:12:27;30.70;;;19.00;;
3613;SDS011;1821;50.936;6.854;2024-01-15T02:13:10;31.90;;;19.60;;
3613;SDS011;1821;50.936;6.854;2024-01-15T02:13:53;34.45;;;19.45;;
3613;SDS011;1821;50.936;6.854;2024-01-15T02:14:35;32.00;;;19.15;;
3613;SDS011;1821;50.936;6.854;2024-01-15T02:15:17;35.22;;;20.27;;
3613;SDS011;1821;50.936;6.854;2024-01-15T02:16:00;35.45;;;19.40;;
3613;SDS011;1821;50.936;6.854;2024-01-15T02:16:42;32.00;;;19.55;;
3613;SDS011;1821;50.936;6.854;2024-01-15T02:17:25;30.48;;;19.83;;
3613;SDS011;1821;50.936;6.854;2024-01-15T02:18:07;31.13;;;19.88;;
3613;SDS011;1821;50.936;6.854;2024-01-15T02:18:50;32.10;;;19.50;;
3613;SDS011;1821;50.936;6.854;2024-01-15T02:19:32;33.33;;;19.40;;
3613;SDS011;1821;50.936;6.854;2024-01-15T02:20:15;32.75;;;19.55;;
3613;SDS011;1821;50.936;6.854;2024-01-15T02:20:57;34.60;;;20.38;;
3613;SDS011;1821;50.936;6.854;2024-01-15T02:21:39;34.33;;;19.63;;
3613;SDS011;1821;50.936;6.854;2024-01-15T02:22:22;32.28;;;19.30;;
3613;SDS011;1821;50.936;6.854;2024-01-15T02:23:52;31.75;;;19.48;;
3613;SDS011;1821;50.936;6.854;2024-01-15T02:24:35;36.92;;;20.10;;
3613;SDS011;1821;50.936;6.854;2024-01-15T02:25:18;34.58;;;19.75;;
3613;SDS011;1821;50.936;6.854;2024-01-15T02:26:03;34.17;;;18.98;;
3613;SDS011;1821;50.936;6.854;2024-01-15T02:26:46;33.45;;;19.55;;
3613;SDS011;1821;50.936;6.854;2024-01-15T02:27:29;30.30;;;18.70;;
3613;SDS011;1821;50.936;6.854;2024-01-15T02:28:12;35.17;;;20.13;;
3613;SDS011;1821;50.936;6.854;2024-01-15T02:28:55;36.28;;;21.10;;
3613;SDS011;1821;50.936;6.854;2024-01-15T02:29:38;30.70;;;19.45;;
3613;SDS011;1821;50.936;6.854;2024-01-15T02:30:20;32.58;;;19.85;;
3613;SDS011;1821;50.936;6.854;2024-01-15T02:31:03;34.78;;;20.75;;
3613;SDS011;1821;50.936;6.854;2024-01-15T02:31:46;31.60;;;19.60;;
3613;SDS011;1821;50.936;6.854;2024-01-15T02:32:28;31.13;;;19.55;;
3613;SDS011;1821;50.936;6.854;2024-01-15T02:33:11;30.02;;;19.17;;
3613;SDS011;1821;50.936;6.854;2024-01-15T02:33:54;31.25;;;20.83;;
3613;SDS011;1821;50.936;6.854;2024-01-15T02:34:37;30.50;;;18.80;;
3613;SDS011;1821;50.936;6.854;2024-01-15T02:35:19;38.80;;;20.33;;
3613;SDS011;1821;50.936;6.854;2024-01-15T02:36:02;34.45;;;19.70;;
3613;SDS011;1821;50.936;6.854;2024-01-15T02:36:47;32.85;;;19.20;;
3613;SDS011;1821;50.936;6.854;2024-01-15T02:37:29;35.60;;;21.00;;
3613;SDS011;1821;50.936;6.854;2024-01-15T02:38:12;36.72;;;20.63;;
3613;SDS011;1821;50.936;6.854;2024-01-15T02:38:54;36.65;;;19.85;;
3613;SDS011;1821;50.936;6.854;2024-01-15T02:39:39;35.17;;;20.35;;
3613;SDS011;1821;50.936;6.854;2024-01-15T02:40:21;32.88;;;19.52;;
3613;SDS011;1821;50.936;6.854;2024-01-15T02:41:06;34.28;;;20.30;;
3613;SDS011;1821;50.936;6.854;2024-01-15T02:41:48;32.72;;;20.77;;
3613;SDS011;1821;50.936;6.854;2024-01-15T02:42:33;32.42;;;18.73;;
3613;SDS011;1821;50.936;6.854;2024-01-15T02:43:15;32.13;;;18.10;;
3613;SDS011;1821;50.936;6.854;2024-01-15T02:44:00;32.67;;;19.83;;
3613;SDS011;1821;50.936;6.854;2024-01-15T02:44:45;34.55;;;21.00;;
3613;SDS011;1821;50.936;6.854;2024-01-15T02:45:27;33.33;;;21.10;;
3613;SDS011;1821;50.936;6.854;2024-01-15T02:46:10;31.83;;;20.63;;
3613;SDS011;1821;50.936;6.854;2024-01-15T02:46:52;35.03;;;20.60;;
3613;SDS011;1821;50.936;6.854;2024-01-15T02:47:34;33.92;;;20.50;;
3613;SDS011;1821;50.936;6.854;2024-01-15T02:48:17;34.67;;;20.60;;
3613;SDS011;1821;50.936;6.854;2024-01-15T02:48:59;35.15;;;20.85;;
3613;SDS011;1821;50.936;6.854;2024-01-15T02:49:42;34.65;;;20.08;;
3613;SDS011;1821;50.936;6.854;2024-01-15T02:50:24;34.47;;;20.88;;
3613;SDS011;1821;50.936;6.854;2024-01-15T02:51:09;38.17;;;21.35;;
3613;SDS011;1821;50.936;6.854;2024-01-15T02:51:52;35.10;;;21.05;;
3613;SDS011;1821;50.936;6.854;2024-01-15T02:52:34;34.97;;;19.88;;
3613;SDS011;1821;50.936;6.854;2024-01-15T02:53:17;35.15;;;20.42;;
3613;SDS011;1821;50.936;6.854;2024-01-15T02:53:59;36.25;;;21.08;;
3613;SDS011;1821;50.936;6.854;2024-01-15T02:54:41;36.10;;;21.35;;
3613;SDS011;1821;50.936;6.854;2024-01-15T02:55:24;34.10;;;20.85;;
3613;SDS011;1821;50.936;6.854;2024-01-15T02:56:07;37.05;;;21.25;;
3613;SDS011;1821;50.936;6.854;2024-01-15T02:56:49;29.85;;;19.90;;
3613;SDS011;1821;50.936;6.854;2024-01-15T02:57:31;31.60;;;19.42;;
3613;SDS011;1821;50.936;6.854;2024-01-15T02:58:14;35.35;;;20.88;;
3613;SDS011;1821;50.936;6.854;2024-01-15T02:58:56;37.65;;;22.15;;
3613;SDS011;1821;50.936;6.854;2024-01-15T02:59:39;34.95;;;20.90;;
3613;SDS011;1821;50.936;6.854;2024-01-15T03:00:21;29.65;;;19.88;;
3613;SDS011;1821;50.936;6.854;2024-01-15T03:01:04;31.10;;;20.20;;
3613;SDS011;1821;50.936;6.854;2024-01-15T03:01:46;35.25;;;20.60;;
3613;SDS011;1821;50.936;6.854;2024-01-15T03:02:29;35.15;;;20.40;;
3613;SDS011;1821;50.936;6.854;2024-01-15T03:03:14;31.20;;;18.98;;
3613;SDS011;1821;50.936;6.854;2024-01-15T03:03:57;29.98;;;19.17;;
3613;SDS011;1821;50.936;6.854;2024-01-15T03:04:43;30.88;;;19.10;;
3613;SDS011;1821;50.936;6.854;2024-01-15T03:05:26;30.88;;;18.38;;
3613;SDS011;1821;50.936;6.854;2024-01-15T03:06:09;30.63;;;19.40;;
3613;SDS011;1821;50.936;6.854;2024-01-15T03:06:52;28.98;;;19.40;;
3613;SDS011;1821;50.936;6.854;2024-01-15T03:07:34;32.60;;;19.92;;
3613;SDS011;1821;50.936;6.854;2024-01-15T03:08:16;29.65;;;19.45;;
3613;SDS011;1821;50.936;6.854;2024-01-15T03:08:59;32.40;;;20.42;;
3613;SDS011;1821;50.936;6.854;2024-01-15T03:09:41;31.60;;;19.40;;
3613;SDS011;1821;50.936;6.854;2024-01-15T03:10:23;29.60;;;18.73;;
3613;SDS011;1821;50.936;6.854;2024-01-15T03:11:05;29.25;;;19.38;;
3613;SDS011;1821;50.936;6.854;2024-01-15T03:11:47;28.95;;;18.55;;
3613;SDS011;1821;50.936;6.854;2024-01-15T03:12:30;27.98;;;18.73;;
3613;SDS011;1821;50.936;6.854;2024-01-15T03:13:13;29.48;;;18.00;;
3613;SDS011;1821;50.936;6.854;2024-01-15T03:13:55;26.50;;;17.75;;
3613;SDS011;1821;50.936;6.854;2024-01-15T03:14:37;28.10;;;17.50;;
3613;SDS011;1821;50.936;6.854;2024-01-15T03:15:20;28.45;;;18.23;;
3613;SDS011;1821;50.936;6.854;2024-01-15T03:16:03;28.45;;;18.20;;
3613;SDS011;1821;50.936;6.854;2024-01-15T03:16:46;26.73;;;17.73;;
3613;SDS011;1821;50.936;6.854;2024-01-15T03:17:28;30.27;;;18.55;;
3613;SDS011;1821;50.936;6.854;2024-01-15T03:18:10;31.15;;;17.83;;
3613;SDS011;1821;50.936;6.854;2024-01-15T03:18:53;29.92;;;18.83;;
3613;SDS011;1821;50.936;6.854;2024-01-15T03:19:35;27.65;;;18.95;;
3613;SDS011;1821;50.936;6.854;2024-01-15T03:20:18;28.90;;;18.75;;
3613;SDS011;1821;50.936;6.854;2024-01-15T03:21:00;28.70;;;19.02;;
3613;SDS011;1821;50.936;6.854;2024-01-15T03:21:43;28.77;;;19.23;;
3613;SDS011;1821;50.936;6.854;2024-01-15T03:22:25;29.75;;;19.83;;
3613;SDS011;1821;50.936;6.854;2024-01-15T03:23:08;30.10;;;19.20;;
3613;SDS011;1821;50.936;6.854;2024-01-15T03:23:50;27.38;;;18.10;;
3613;SDS011;1821;50.936;6.854;2024-01-15T03:24:35;27.17;;;17.20;;
3613;SDS011;1821;50.936;6.854;2024-01-15T03:25:18;24.60;;;16.50;;
3613;SDS011;1821;50.936;6.854;2024-01-15T03:26:01;30.45;;;18.33;;
3613;SDS011;1821;50.936;6.854;2024-01-15T03:26:43;29.60;;;17.95;;
3613;SDS011;1821;50.936;6.854;2024-01-15T03:27:25;32.63;;;18.63;;
3613;SDS011;1821;50.936;6.854;2024-01-15T03:28:07;27.17;;;17.67;;
3613;SDS011;1821;50.936;6.854;2024-01-15T03:28:50;27.50;;;18.73;;
3613;SDS011;1821;50.936;6.854;2024-01-15T03:29:33;30.85;;;19.10;;
3613;SDS011;1821;50.936;6.854;2024-01-15T03:30:15;32.25;;;19.15;;
3613;SDS011;1821;50.936;6.854;2024-01-15T03:30:58;31.00;;;18.60;;
3613;SDS011;1821;50.936;6.854;2024-01-15T03:31:40;27.50;;;17.75;;
3613;SDS011;1821;50.936;6.854;2024-01-15T03:32:25;31.03;;;18.73;;
3613;SDS011;1821;50.936;6.854;2024-01-15T03:33:07;29.48;;;18.85;;
3613;SDS011;1821;50.936;6.854;2024-01-15T03:33:50;28.90;;;18.25;;
3613;SDS011;1821;50.936;6.854;2024-01-15T03:34:32;29.55;;;18.95;;
3613;SDS011;1821;50.936;6.854;2024-01-15T03:35:15;29.80;;;19.83;;
3613;SDS011;1821;50.936;6.854;2024-01-15T03:35:58;31.05;;;19.33;;
3613;SDS011;1821;50.936;6.854;2024-01-15T03:36:41;27.85;;;17.98;;
3613;SDS011;1821;50.936;6.854;2024-01-15T03:37:23;28.30;;;17.40;;
3613;SDS011;1821;50.936;6.854;2024-01-15T03:38:05;27.15;;;18.85;;
3613;SDS011;1821;50.936;6.854;2024-01-15T03:38:48;30.77;;;19.27;;
3613;SDS011;1821;50.936;6.854;2024-01-15T03:39:30;27.77;;;18.73;;
3613;SDS011;1821;50.936;6.854;2024-01-15T03:40:13;31.85;;;19.75;;
3613;SDS011;1821;50.936;6.854;2024-01-15T03:40:57;31.38;;;19.65;;
3613;SDS011;1821;50.936;6.854;2024-01-15T03:41:40;28.25;;;18.52;;
3613;SDS011;1821;50.936;6.854;2024-01-15T03:42:22;26.27;;;18.40;;
3613;SDS011;1821;50.936;6.854;2024-01-15T03:43:04;30.48;;;18.98;;
3613;SDS011;1821;50.936;6.854;2024-01-15T03:43:46;31.52;;;19.23;;
3613;SDS011;1821;50.936;6.854;2024-01-15T03:44:29;31.00;;;19.98;;
3613;SDS011;1821;50.936;6.854;2024-01-15T03:45:11;28.05;;;20.00;;
3613;SDS011;1821;50.936;6.854;2024-01-15T03:45:54;24.17;;;17.70;;
3613;SDS011;1821;50.936;6.854;2024-01-15T03:46:36;26.77;;;18.63;;
3613;SDS011;1821;50.936;6.854;2024-01-15T03:47:19;27.15;;;18.05;;
3613;SDS011;1821;50.936;6.854;2024-01-15T03:48:01;25.73;;;18.40;;
3613;SDS011;1821;50.936;6.854;2024-01-15T03:48:44;24.63;;;17.95;;
3613;SDS011;1821;50.936;6.854;2024-01-15T03:49:26;26.80;;;18.02;;
3613;SDS011;1821;50.936;6.854;2024-01-15T03:50:09;30.73;;;19.27;;
3613;SDS011;1821;50.936;6.854;2024-01-15T03:50:53;28.73;;;18.95;;
3613;SDS011;1821;50.936;6.854;2024-01-15T03:51:36;29.40;;;19.05;;
3613;SDS011;1821;50.936;6.854;2024-01-15T03:52:19;26.80;;;18.00;;
3613;SDS011;1821;50.936;6.854;2024-01-15T03:53:01;24.48;;;17.80;;
3613;SDS011;1821;50.936;6.854;2024-01-15T03:53:43;28.63;;;19.67;;
3613;SDS011;1821;50.936;6.854;2024-01-15T03:54:26;29.42;;;20.15;;
3613;SDS011;1821;50.936;6.854;2024-01-15T03:55:08;32.13;;;20.45;;
3613;SDS011;1821;50.936;6.854;2024-01-15T03:55:50;30.83;;;19.83;;
3613;SDS011;1821;50.936;6.854;2024-01-15T03:56:33;31.30;;;19.48;;
3613;SDS011;1821;50.936;6.854;2024-01-15T03:57:16;32.10;;;20.60;;
3613;SDS011;1821;50.936;6.854;2024-01-15T03:57:59;30.27;;;20.30;;
3613;SDS011;1821;50.936;6.854;2024-01-15T03:58:41;36.00;;;20.40;;
3613;SDS011;1821;50.936;6.854;2024-01-15T03:59:24;37.45;;;21.63;;
3613;SDS011;1821;50.936;6.854;2024-01-15T04:00:06;30.98;;;20.92;;
3613;SDS011;1821;50.936;6.854;2024-01-15T04:00:49;29.75;;;20.55;;
3613;SDS011;1821;50.936;6.854;2024-01-15T04:01:32;28.83;;;19.83;;
3613;SDS011;1821;50.936;6.854;2024-01-15T04:02:14;29.55;;;19.35;;
3613;SDS011;1821;50.936;6.854;2024-01-15T04:02:57;31.50;;;19.00;;
3613;SDS011;1821;50.936;6.854;2024-01-15T04:03:40;32.75;;;19.92;;
3613;SDS011;1821;50.936;6.854;2024-01-15T04:04:22;35.27;;;20.20;;
3613;SDS011;1821;50.936;6.854;2024-01-15T04:05:05;33.63;;;19.93;;
3613;SDS011;1821;50.936;6.854;2024-01-15T04:05:47;30.52;;;19.50;;
3613;SDS011;1821;50.936;6.854;2024-01-15T04:06:30;30.63;;;19.77;;
3613;SDS011;1821;50.936;6.854;2024-01-15T04:07:12;31.67;;;20.58;;
3613;SDS011;1821;50.936;6.854;2024-01-15T04:07:55;29.35;;;19.80;;
3613;SDS011;1821;50.936;6.854;2024-01-15T04:08:37;29.08;;;19.77;;
3613;SDS011;1821;50.936;6.854;2024-01-15T04:09:20;29.90;;;20.30;;
3613;SDS011;1821;50.936;6.854;2024-01-15T04:10:02;30.63;;;19.45;;
3613;SDS011;1821;50.936;6.854;2024-01-15T04:10:44;33.42;;;19.77;;
3613;SDS011;1821;50.936;6.854;2024-01-15T04:11:27;29.83;;;19.65;;
3613;SDS011;1821;50.936;6.854;2024-01-15T04:12:09;29.15;;;19.77;;
3613;SDS011;1821;50.936;6.854;2024-01-15T04:12:51;33.70;;;19.75;;
3613;SDS011;1821;50.936;6.854;2024-01-15T04:13:34;34.33;;;19.77;;
3613;SDS011;1821;50.936;6.854;2024-01-15T04:14:16;32.65;;;19.90;;
3613;SDS011;1821;50.936;6.854;2024-01-15T04:14:59;33.75;;;19.80;;
3613;SDS011;1821;50.936;6.854;2024-01-15T04:15:41;30.73;;;18.80;;
3613;SDS011;1821;50.936;6.854;2024-01-15T04:16:23;32.47;;;19.55;;
3613;SDS011;1821;50.936;6.854;2024-01-15T04:17:06;29.88;;;19.80;;
3613;SDS011;1821;50.936;6.854;2024-01-15T04:17:48;29.05;;;18.60;;
3613;SDS011;1821;50.936;6.854;2024-01-15T04:18:30;33.28;;;18.83;;